Olib — 9AA6266 — position and weather

sailwx.info

Track history (hours):
 
Tides and Currents Weather Stations Pressure Air Temp Water Temp Dewpoint Dewpoint Depression Visibility Wind Speed Wind Dir Waves Ship Positions

Olib

Last reported at 2017-Apr-25 13:07 UTC. Time now 2017-Apr-26 06:12 UTC.
Position N 59°26' E 027°44'.

Length 247 m; draft 10.7 m.

Type: Ship. MMSI: 238252000.

Date/timePositionNaut miles runAvg speedWind from/ knotsBaromVisibWave heightAir tempDewpointWater temp
2017-Apr-25 13:07N 59°26' E 027°44'0 2.0
2017-Apr-25 13:00N 59°26' E 027°44'2 4.1
2017-Apr-25 12:30N 59°28' E 027°43'1 1.8
2017-Apr-25 11:59N 59°29' E 027°43'0 0.4
2017-Apr-25 11:20N 59°29' E 027°43'0 0.1
2017-Apr-25 10:50N 59°29' E 027°43'0 0.0
2017-Apr-25 10:29N 59°29' E 027°43'0 0.0
2017-Apr-25 09:50N 59°29' E 027°43'0 0.0
2017-Apr-25 09:20N 59°29' E 027°43'0 0.0
2017-Apr-25 08:53N 59°29' E 027°43'0 0.0
2017-Apr-25 08:23N 59°29' E 027°43'0 0.0
2017-Apr-25 07:53N 59°29' E 027°43'0 0.0
2017-Apr-25 07:23N 59°29' E 027°43'0 0.0
2017-Apr-25 06:53N 59°29' E 027°43'0 0.0
2017-Apr-25 06:20N 59°29' E 027°43'0 0.1
2017-Apr-25 05:56N 59°29' E 027°43'0 0.0
2017-Apr-25 05:23N 59°29' E 027°43'0 0.0
2017-Apr-25 04:41N 59°29' E 027°43'0 0.0
2017-Apr-25 04:26N 59°29' E 027°43'0 0.0
2017-Apr-25 03:59N 59°29' E 027°43'0 0.0
2017-Apr-25 03:29N 59°29' E 027°43'0 0.0
2017-Apr-25 02:56N 59°29' E 027°43'0 0.1
2017-Apr-25 02:29N 59°29' E 027°43'0 0.1
2017-Apr-25 01:59N 59°29' E 027°43'0 0.1
2017-Apr-25 01:29N 59°29' E 027°43'0 0.0
2017-Apr-25 00:56N 59°29' E 027°43'0 0.0
2017-Apr-25 00:29N 59°29' E 027°43'0 0.1
2017-Apr-24 23:56N 59°29' E 027°43'0 0.0
2017-Apr-24 23:26N 59°29' E 027°43'0 0.0
2017-Apr-24 22:59N 59°29' E 027°43'0 0.1
2017-Apr-24 22:29N 59°29' E 027°43'0 0.2
2017-Apr-24 21:59N 59°28' E 027°43'0 0.0
2017-Apr-24 21:29N 59°29' E 027°43'0 0.0
2017-Apr-24 20:59N 59°28' E 027°43'0 0.0
2017-Apr-24 20:17N 59°29' E 027°43'0 0.1
2017-Apr-24 19:50N 59°28' E 027°43'0 0.0
2017-Apr-24 18:53N 59°28' E 027°43'0 0.0
2017-Apr-24 18:23N 59°28' E 027°43'0 0.0
2017-Apr-24 17:53N 59°28' E 027°43'0 0.1
2017-Apr-24 17:23N 59°29' E 027°43'0 0.0
2017-Apr-24 16:53N 59°28' E 027°43'0 0.1
2017-Apr-24 16:26N 59°28' E 027°43'0 0.2
2017-Apr-24 15:56N 59°29' E 027°43'1 1.6
2017-Apr-24 15:30N 59°29' E 027°43'3 5.3
2017-Apr-24 15:00N 59°30' E 027°38'4 8.7
2017-Apr-24 14:30N 59°31' E 027°30'2611.0
2017-Apr-24 12:07N 59°45' E 026°46'111.7
2017-Apr-24 11:59N 59°47' E 026°44'611.8
2017-Apr-24 11:30N 59°51' E 026°37'611.8
2017-Apr-24 11:00N 59°56' E 026°30'510.0
2017-Apr-24 10:30N 60°01' E 026°28'611.3
2017-Apr-24 10:00N 60°01' E 026°40'611.7
2017-Apr-24 09:30N 59°60' E 026°51'1410.8
2017-Apr-24 08:13N 60°04' E 027°18'211.6
2017-Apr-24 08:00N 60°05' E 027°22'911.6
2017-Apr-24 07:15N 60°10' E 027°37'311.7
2017-Apr-24 06:59N 60°11' E 027°43'510.8
2017-Apr-24 06:30N 60°11' E 027°53'611.8
2017-Apr-24 06:00N 60°10' E 028°05'611.6
2017-Apr-24 05:30N 60°08' E 028°16'611.6
2017-Apr-24 05:00N 60°05' E 028°25'511.0
2017-Apr-24 04:30N 60°03' E 028°36'5 9.6
2017-Apr-24 04:00N 59°58' E 028°36'4 8.4
2017-Apr-24 03:30N 59°54' E 028°32'511.0
2017-Apr-24 03:00N 59°50' E 028°26'510.7
2017-Apr-24 02:30N 59°45' E 028°25'2 4.9
2017-Apr-24 02:00N 59°42' E 028°26'0 0.1
2017-Apr-24 01:22N 59°42' E 028°26'0 0.0
2017-Apr-24 00:52N 59°42' E 028°26'0 0.0
2017-Apr-24 00:22N 59°42' E 028°26'0 0.0
2017-Apr-23 23:52N 59°42' E 028°26'0 0.0
2017-Apr-23 23:22N 59°42' E 028°26'0 0.0
2017-Apr-23 22:55N 59°42' E 028°26'0 0.0
2017-Apr-23 22:25N 59°42' E 028°26'0 0.0
2017-Apr-23 21:55N 59°42' E 028°26'0 0.0
2017-Apr-23 21:25N 59°42' E 028°26'0 0.0
2017-Apr-23 20:55N 59°42' E 028°26'0 0.0
2017-Apr-23 20:28N 59°42' E 028°26'0 0.0
2017-Apr-23 19:58N 59°42' E 028°26'0 0.0
2017-Apr-23 19:28N 59°42' E 028°26'0 0.0
2017-Apr-23 18:58N 59°42' E 028°26'0 0.0
2017-Apr-23 18:28N 59°42' E 028°26'0 0.0
2017-Apr-23 17:58N 59°42' E 028°26'0 0.0
2017-Apr-23 17:28N 59°42' E 028°26'0 0.0
2017-Apr-23 16:58N 59°42' E 028°26'0 0.0
2017-Apr-23 16:28N 59°42' E 028°26'0 0.0
2017-Apr-23 15:58N 59°42' E 028°26'0 0.0
2017-Apr-23 15:28N 59°42' E 028°26'0 0.0
2017-Apr-23 14:58N 59°42' E 028°26'0 0.0
2017-Apr-23 14:19N 59°42' E 028°26'0 0.0
2017-Apr-23 13:19N 59°42' E 028°26'0 0.0
2017-Apr-23 12:49N 59°42' E 028°26'0 0.0
2017-Apr-23 12:19N 59°42' E 028°26'0 0.0
2017-Apr-23 11:52N 59°42' E 028°26'0 0.0
2017-Apr-23 11:22N 59°42' E 028°26'0 0.0
2017-Apr-23 10:52N 59°42' E 028°26'0 0.0
2017-Apr-23 10:22N 59°42' E 028°26'0 0.0
2017-Apr-23 09:52N 59°42' E 028°26'0 0.0
2017-Apr-23 09:22N 59°42' E 028°26'0 0.0
2017-Apr-23 08:49N 59°42' E 028°26'0 0.0
2017-Apr-23 08:22N 59°42' E 028°26'0 0.0
2017-Apr-23 07:55N 59°42' E 028°26'0 0.0
2017-Apr-23 07:25N 59°42' E 028°26'0 0.0
2017-Apr-23 06:55N 59°42' E 028°26'0 0.0
2017-Apr-23 06:22N 59°42' E 028°26'0 0.0
2017-Apr-23 05:55N 59°42' E 028°26'0 0.0
2017-Apr-23 05:28N 59°42' E 028°26'0 0.0
2017-Apr-23 04:58N 59°42' E 028°26'0 0.0
2017-Apr-23 04:28N 59°42' E 028°26'0 0.0
2017-Apr-23 03:55N 59°42' E 028°26'0 0.0
2017-Apr-23 03:25N 59°42' E 028°26'0 0.0
2017-Apr-23 02:58N 59°42' E 028°26'0 0.0
2017-Apr-23 02:28N 59°42' E 028°26'0 0.0
2017-Apr-23 01:58N 59°42' E 028°26'0 0.0
2017-Apr-23 01:28N 59°42' E 028°26'0 0.0
2017-Apr-23 00:58N 59°42' E 028°26'0 0.0
2017-Apr-23 00:30N 59°42' E 028°26'0 0.8
2017-Apr-23 00:00N 59°42' E 028°25'1 2.1
2017-Apr-22 23:30N 59°42' E 028°24'4 7.8
2017-Apr-22 23:00N 59°46' E 028°24'612.1
2017-Apr-22 22:30N 59°52' E 028°28'5 9.5
2017-Apr-22 22:00N 59°55' E 028°35'1 1.1
2017-Apr-22 21:23N 59°55' E 028°37'0 0.0
2017-Apr-22 20:56N 59°55' E 028°37'0 0.0
2017-Apr-22 20:26N 59°55' E 028°37'0 0.1
2017-Apr-22 19:56N 59°55' E 028°37'0 0.1
2017-Apr-22 19:26N 59°55' E 028°37'0 0.1
2017-Apr-22 18:56N 59°55' E 028°37'0 0.0
2017-Apr-22 18:26N 59°55' E 028°37'0 0.1
2017-Apr-22 17:59N 59°55' E 028°37'0 0.1
2017-Apr-22 17:29N 59°55' E 028°37'0 0.1
2017-Apr-22 16:56N 59°55' E 028°37'0 0.1
2017-Apr-22 16:26N 59°55' E 028°36'0 0.0
2017-Apr-22 15:59N 59°55' E 028°36'0 0.1
2017-Apr-22 15:29N 59°55' E 028°37'0 0.1
2017-Apr-22 14:59N 59°55' E 028°37'0 0.1
2017-Apr-22 14:29N 59°55' E 028°37'0 0.0
2017-Apr-22 13:29N 59°55' E 028°37'0 0.1
2017-Apr-22 12:59N 59°55' E 028°37'0 0.0
2017-Apr-22 12:29N 59°55' E 028°37'0 0.0
2017-Apr-22 11:59N 59°55' E 028°37'0 0.0
2017-Apr-22 11:29N 59°55' E 028°36'0 0.0
2017-Apr-22 10:59N 59°55' E 028°36'0 0.2
2017-Apr-22 10:20N 59°55' E 028°37'0 0.2
2017-Apr-22 09:50N 59°55' E 028°37'0 0.0
2017-Apr-22 09:20N 59°55' E 028°37'0 0.0
2017-Apr-22 08:50N 59°55' E 028°37'0 0.0
2017-Apr-22 08:23N 59°55' E 028°37'0 0.0
2017-Apr-22 07:53N 59°55' E 028°37'0 0.0
2017-Apr-22 07:23N 59°55' E 028°37'0 0.1
2017-Apr-22 06:53N 59°55' E 028°37'0 0.1
2017-Apr-22 06:23N 59°55' E 028°37'0 0.0
2017-Apr-22 05:53N 59°55' E 028°37'0 0.1
2017-Apr-22 05:26N 59°55' E 028°37'0 0.0
2017-Apr-22 04:56N 59°55' E 028°37'0 0.0
2017-Apr-22 04:26N 59°55' E 028°37'0 0.0
2017-Apr-22 03:56N 59°55' E 028°37'0 0.0
2017-Apr-22 03:29N 59°55' E 028°37'0 0.0
2017-Apr-22 02:59N 59°55' E 028°37'0 0.0
2017-Apr-22 02:29N 59°55' E 028°37'0 0.0
2017-Apr-22 01:59N 59°55' E 028°37'0 0.1
2017-Apr-22 01:29N 59°55' E 028°37'0 0.1
2017-Apr-22 00:59N 59°55' E 028°37'0 0.0
2017-Apr-22 00:29N 59°55' E 028°37'0 0.0
2017-Apr-21 23:59N 59°55' E 028°37'0 0.0
2017-Apr-21 23:29N 59°55' E 028°37'0 0.0
2017-Apr-21 22:59N 59°55' E 028°37'0 0.0
2017-Apr-21 22:29N 59°55' E 028°37'0 0.0
2017-Apr-21 21:59N 59°55' E 028°37'0 0.0
2017-Apr-21 21:14N 59°55' E 028°37'0 0.1
2017-Apr-21 20:59N 59°55' E 028°37'0 0.0
2017-Apr-21 20:29N 59°55' E 028°37'0 0.1
2017-Apr-21 19:59N 59°55' E 028°37'0 0.0
2017-Apr-21 19:29N 59°55' E 028°37'0 0.0
2017-Apr-21 18:50N 59°55' E 028°37'0 0.0
2017-Apr-21 18:20N 59°55' E 028°37'0 0.0
2017-Apr-21 17:50N 59°55' E 028°37'0 0.0
2017-Apr-21 17:23N 59°55' E 028°37'0 0.0
2017-Apr-21 16:53N 59°55' E 028°37'0 0.0
2017-Apr-21 16:23N 59°55' E 028°37'0 0.0
2017-Apr-21 15:56N 59°55' E 028°37'0 0.1
2017-Apr-21 15:26N 59°55' E 028°37'0 0.1
2017-Apr-21 14:53N 59°55' E 028°37'0 0.1
2017-Apr-21 14:23N 59°55' E 028°37'0 0.1
2017-Apr-21 13:26N 59°55' E 028°37'0 0.0
2017-Apr-21 12:56N 59°55' E 028°37'0 0.0
2017-Apr-21 12:26N 59°55' E 028°37'0 0.0
2017-Apr-21 11:59N 59°55' E 028°37'0 0.1
2017-Apr-21 11:29N 59°55' E 028°37'0 0.0
2017-Apr-21 10:59N 59°55' E 028°37'0 0.0
2017-Apr-21 10:29N 59°55' E 028°37'0 0.0
2017-Apr-21 09:59N 59°55' E 028°37'0 0.0
2017-Apr-21 09:29N 59°55' E 028°37'0 0.0
2017-Apr-21 08:59N 59°55' E 028°37'0 0.0
2017-Apr-21 08:29N 59°55' E 028°37'0 0.0
2017-Apr-21 07:44N 59°55' E 028°37'0 0.1
2017-Apr-21 07:29N 59°55' E 028°37'0 0.0
2017-Apr-21 06:59N 59°55' E 028°37'0 0.2
2017-Apr-21 06:29N 59°55' E 028°37'1 1.0
2017-Apr-21 06:00N 59°56' E 028°38'4 7.0
2017-Apr-21 05:30N 59°59' E 028°37'4 8.6
2017-Apr-21 05:00N 60°02' E 028°32'510.4
2017-Apr-21 04:30N 60°04' E 028°22'5 9.3
2017-Apr-21 04:00N 60°07' E 028°15'4 8.9
2017-Apr-21 03:30N 60°08' E 028°06'4 8.5
2017-Apr-21 03:00N 60°09' E 027°58'5 8.8
2017-Apr-21 02:26N 60°11' E 027°48'30 8.6
2017-Apr-20 22:59N 59°59' E 026°53'4 8.3
2017-Apr-20 22:30N 59°59' E 026°45'6 9.1
2017-Apr-20 21:49N 59°59' E 026°33'7112.6
2017-Apr-20 16:11N 59°42' E 024°16'312.7
2017-Apr-20 15:55N 59°41' E 024°10'512.7
2017-Apr-20 15:30N 59°39' E 023°60'612.7
2017-Apr-20 15:00N 59°37' E 023°48'1313.0
2017-Apr-20 14:00N 59°33' E 023°24'912.8
2017-Apr-20 13:19N 59°30' E 023°07'33811.5
2017-Apr-19 07:57N 55°37' E 015°29'511.1
2017-Apr-19 07:29N 55°35' E 015°21'612.3
2017-Apr-19 06:59N 55°32' E 015°11'611.8
2017-Apr-19 06:30N 55°30' E 015°02'611.2
2017-Apr-19 05:59N 55°27' E 014°53'611.3
2017-Apr-19 05:29N 55°25' E 014°44'511.1
2017-Apr-19 05:00N 55°22' E 014°36'611.2
2017-Apr-19 04:30N 55°17' E 014°30'611.5
2017-Apr-19 04:00N 55°13' E 014°24'611.6
2017-Apr-19 03:30N 55°08' E 014°18'611.4
2017-Apr-19 03:00N 55°04' E 014°11'611.0
2017-Apr-19 02:29N 55°00' E 014°04'611.3
2017-Apr-19 01:59N 54°59' E 013°54'611.4
2017-Apr-19 01:29N 54°57' E 013°45'611.7
2017-Apr-19 00:59N 54°55' E 013°35'3811.7
2017-Apr-18 21:46N 54°41' E 012°34'311.7
2017-Apr-18 21:30N 54°39' E 012°30'12 9.2
2017-Apr-18 20:09N 54°30' E 012°16'510.6
2017-Apr-18 19:40N 54°26' E 012°11'210.5
2017-Apr-18 19:30N 54°25' E 012°08'511.2
2017-Apr-18 19:00N 54°25' E 011°59'511.0
2017-Apr-18 18:30N 54°25' E 011°49'611.1
2017-Apr-18 18:00N 54°26' E 011°40'510.7
2017-Apr-18 17:30N 54°29' E 011°32'510.8
2017-Apr-18 17:00N 54°31' E 011°23'611.0
2017-Apr-18 16:30N 54°33' E 011°15'510.7
2017-Apr-18 16:00N 54°36' E 011°07'510.4
2017-Apr-18 15:30N 54°39' E 010°59'510.8
2017-Apr-18 15:00N 54°42' E 010°52'611.1
2017-Apr-18 14:30N 54°48' E 010°52'10 9.9
2017-Apr-18 13:30N 54°57' E 010°57'510.4
2017-Apr-18 13:00N 55°02' E 011°01'511.0
2017-Apr-18 12:30N 55°07' E 011°02'117 8.1
2017-Apr-17 21:59N 57°03' E 011°41'510.6
2017-Apr-17 21:29N 57°08' E 011°37'510.4
2017-Apr-17 21:00N 57°13' E 011°34'510.4
2017-Apr-17 20:30N 57°17' E 011°31'510.4
2017-Apr-17 19:59N 57°22' E 011°28'510.1
2017-Apr-17 19:30N 57°27' E 011°27'5 9.5
2017-Apr-17 19:00N 57°32' E 011°31'510.6
2017-Apr-17 18:30N 57°34' E 011°39'1 2.3
2017-Apr-17 18:00N 57°35' E 011°41'0 0.0
2017-Apr-17 17:30N 57°35' E 011°41'0 0.0
2017-Apr-17 17:00N 57°35' E 011°41'0 0.0
2017-Apr-17 16:30N 57°35' E 011°41'0 0.0
2017-Apr-17 16:00N 57°35' E 011°41'0 0.1
2017-Apr-17 15:30N 57°35' E 011°41'0 0.6
2017-Apr-17 15:00N 57°35' E 011°40'6 6.2
2017-Apr-17 14:00N 57°34' E 011°28'610.9
2017-Apr-17 13:30N 57°35' E 011°18'611.1
2017-Apr-17 13:00N 57°36' E 011°08'611.5
2017-Apr-17 12:30N 57°39' E 011°00'611.4
2017-Apr-17 12:00N 57°43' E 010°52'611.4
2017-Apr-17 11:28N 57°47' E 010°44'612.4
2017-Apr-17 11:00N 57°48' E 010°33'23211.2
2017-Apr-16 14:13N 55°06' E 005°31'911.6
2017-Apr-16 13:27N 54°58' E 005°24'511.6
2017-Apr-16 13:00N 54°54' E 005°20'611.6
2017-Apr-16 12:30N 54°48' E 005°16'17210.5
2017-Apr-15 20:10N 52°08' E 003°34'211.7
2017-Apr-15 20:00N 52°07' E 003°36'612.3
2017-Apr-15 19:30N 52°05' E 003°46'511.0
2017-Apr-15 19:00N 52°03' E 003°54'4 8.4
2017-Apr-15 18:30N 52°00' E 003°60'4 8.2
2017-Apr-15 18:01N 51°58' E 004°05'0 0.7
2017-Apr-15 17:30N 51°58' E 004°04'0 0.0
2017-Apr-15 17:00N 51°58' E 004°04'0 0.0
2017-Apr-15 16:30N 51°58' E 004°04'0 0.0
2017-Apr-15 15:54N 51°58' E 004°04'0 0.0
2017-Apr-15 15:30N 51°58' E 004°04'0 0.0
2017-Apr-15 15:00N 51°58' E 004°04'0 0.0
2017-Apr-15 14:30N 51°58' E 004°04'0 0.0
2017-Apr-15 13:30N 51°58' E 004°04'  
Track history (hours):
 
Tides and Currents Weather Stations Pressure Air Temp Water Temp Dewpoint Dewpoint Depression Visibility Wind Speed Wind Dir Waves Ship Positions

Olib

Last reported at 2017-Apr-25 13:07 UTC. Time now 2017-Apr-26 06:12 UTC.
Position N 59°26' E 027°44'.

Length 247 m; draft 10.7 m.

Type: Ship. MMSI: 238252000.

Date/timePositionNaut miles runAvg speedWind from/ knotsBaromVisibWave heightAir tempDewpointWater temp
2017-Apr-25 13:07N 59°26' E 027°44'0 2.0
2017-Apr-25 13:00N 59°26' E 027°44'2 4.1
2017-Apr-25 12:30N 59°28' E 027°43'1 1.8
2017-Apr-25 11:59N 59°29' E 027°43'0 0.4
2017-Apr-25 11:20N 59°29' E 027°43'0 0.1
2017-Apr-25 10:50N 59°29' E 027°43'0 0.0
2017-Apr-25 10:29N 59°29' E 027°43'0 0.0
2017-Apr-25 09:50N 59°29' E 027°43'0 0.0
2017-Apr-25 09:20N 59°29' E 027°43'0 0.0
2017-Apr-25 08:53N 59°29' E 027°43'0 0.0
2017-Apr-25 08:23N 59°29' E 027°43'0 0.0
2017-Apr-25 07:53N 59°29' E 027°43'0 0.0
2017-Apr-25 07:23N 59°29' E 027°43'0 0.0
2017-Apr-25 06:53N 59°29' E 027°43'0 0.0
2017-Apr-25 06:20N 59°29' E 027°43'0 0.1
2017-Apr-25 05:56N 59°29' E 027°43'0 0.0
2017-Apr-25 05:23N 59°29' E 027°43'0 0.0
2017-Apr-25 04:41N 59°29' E 027°43'0 0.0
2017-Apr-25 04:26N 59°29' E 027°43'0 0.0
2017-Apr-25 03:59N 59°29' E 027°43'0 0.0
2017-Apr-25 03:29N 59°29' E 027°43'0 0.0
2017-Apr-25 02:56N 59°29' E 027°43'0 0.1
2017-Apr-25 02:29N 59°29' E 027°43'0 0.1
2017-Apr-25 01:59N 59°29' E 027°43'0 0.1
2017-Apr-25 01:29N 59°29' E 027°43'0 0.0
2017-Apr-25 00:56N 59°29' E 027°43'0 0.0
2017-Apr-25 00:29N 59°29' E 027°43'0 0.1
2017-Apr-24 23:56N 59°29' E 027°43'0 0.0
2017-Apr-24 23:26N 59°29' E 027°43'0 0.0
2017-Apr-24 22:59N 59°29' E 027°43'0 0.1
2017-Apr-24 22:29N 59°29' E 027°43'0 0.2
2017-Apr-24 21:59N 59°28' E 027°43'0 0.0
2017-Apr-24 21:29N 59°29' E 027°43'0 0.0
2017-Apr-24 20:59N 59°28' E 027°43'0 0.0
2017-Apr-24 20:17N 59°29' E 027°43'0 0.1
2017-Apr-24 19:50N 59°28' E 027°43'0 0.0
2017-Apr-24 18:53N 59°28' E 027°43'0 0.0
2017-Apr-24 18:23N 59°28' E 027°43'0 0.0
2017-Apr-24 17:53N 59°28' E 027°43'0 0.1
2017-Apr-24 17:23N 59°29' E 027°43'0 0.0
2017-Apr-24 16:53N 59°28' E 027°43'0 0.1
2017-Apr-24 16:26N 59°28' E 027°43'0 0.2
2017-Apr-24 15:56N 59°29' E 027°43'1 1.6
2017-Apr-24 15:30N 59°29' E 027°43'3 5.3
2017-Apr-24 15:00N 59°30' E 027°38'4 8.7
2017-Apr-24 14:30N 59°31' E 027°30'2611.0
2017-Apr-24 12:07N 59°45' E 026°46'111.7
2017-Apr-24 11:59N 59°47' E 026°44'611.8
2017-Apr-24 11:30N 59°51' E 026°37'611.8
2017-Apr-24 11:00N 59°56' E 026°30'510.0
2017-Apr-24 10:30N 60°01' E 026°28'611.3
2017-Apr-24 10:00N 60°01' E 026°40'611.7
2017-Apr-24 09:30N 59°60' E 026°51'1410.8
2017-Apr-24 08:13N 60°04' E 027°18'211.6
2017-Apr-24 08:00N 60°05' E 027°22'911.6
2017-Apr-24 07:15N 60°10' E 027°37'311.7
2017-Apr-24 06:59N 60°11' E 027°43'510.8
2017-Apr-24 06:30N 60°11' E 027°53'611.8
2017-Apr-24 06:00N 60°10' E 028°05'611.6
2017-Apr-24 05:30N 60°08' E 028°16'611.6
2017-Apr-24 05:00N 60°05' E 028°25'511.0
2017-Apr-24 04:30N 60°03' E 028°36'5 9.6
2017-Apr-24 04:00N 59°58' E 028°36'4 8.4
2017-Apr-24 03:30N 59°54' E 028°32'511.0
2017-Apr-24 03:00N 59°50' E 028°26'510.7
2017-Apr-24 02:30N 59°45' E 028°25'2 4.9
2017-Apr-24 02:00N 59°42' E 028°26'0 0.1
2017-Apr-24 01:22N 59°42' E 028°26'0 0.0
2017-Apr-24 00:52N 59°42' E 028°26'0 0.0
2017-Apr-24 00:22N 59°42' E 028°26'0 0.0
2017-Apr-23 23:52N 59°42' E 028°26'0 0.0
2017-Apr-23 23:22N 59°42' E 028°26'0 0.0
2017-Apr-23 22:55N 59°42' E 028°26'0 0.0
2017-Apr-23 22:25N 59°42' E 028°26'0 0.0
2017-Apr-23 21:55N 59°42' E 028°26'0 0.0
2017-Apr-23 21:25N 59°42' E 028°26'0 0.0
2017-Apr-23 20:55N 59°42' E 028°26'0 0.0
2017-Apr-23 20:28N 59°42' E 028°26'0 0.0
2017-Apr-23 19:58N 59°42' E 028°26'0 0.0
2017-Apr-23 19:28N 59°42' E 028°26'0 0.0
2017-Apr-23 18:58N 59°42' E 028°26'0 0.0
2017-Apr-23 18:28N 59°42' E 028°26'0 0.0
2017-Apr-23 17:58N 59°42' E 028°26'0 0.0
2017-Apr-23 17:28N 59°42' E 028°26'0 0.0
2017-Apr-23 16:58N 59°42' E 028°26'0 0.0
2017-Apr-23 16:28N 59°42' E 028°26'0 0.0
2017-Apr-23 15:58N 59°42' E 028°26'0 0.0
2017-Apr-23 15:28N 59°42' E 028°26'0 0.0
2017-Apr-23 14:58N 59°42' E 028°26'0 0.0
2017-Apr-23 14:19N 59°42' E 028°26'0 0.0
2017-Apr-23 13:19N 59°42' E 028°26'0 0.0
2017-Apr-23 12:49N 59°42' E 028°26'0 0.0
2017-Apr-23 12:19N 59°42' E 028°26'0 0.0
2017-Apr-23 11:52N 59°42' E 028°26'0 0.0
2017-Apr-23 11:22N 59°42' E 028°26'0 0.0
2017-Apr-23 10:52N 59°42' E 028°26'0 0.0
2017-Apr-23 10:22N 59°42' E 028°26'0 0.0
2017-Apr-23 09:52N 59°42' E 028°26'0 0.0
2017-Apr-23 09:22N 59°42' E 028°26'0 0.0
2017-Apr-23 08:49N 59°42' E 028°26'0 0.0
2017-Apr-23 08:22N 59°42' E 028°26'0 0.0
2017-Apr-23 07:55N 59°42' E 028°26'0 0.0
2017-Apr-23 07:25N 59°42' E 028°26'0 0.0
2017-Apr-23 06:55N 59°42' E 028°26'0 0.0
2017-Apr-23 06:22N 59°42' E 028°26'0 0.0
2017-Apr-23 05:55N 59°42' E 028°26'0 0.0
2017-Apr-23 05:28N 59°42' E 028°26'0 0.0
2017-Apr-23 04:58N 59°42' E 028°26'0 0.0
2017-Apr-23 04:28N 59°42' E 028°26'0 0.0
2017-Apr-23 03:55N 59°42' E 028°26'0 0.0
2017-Apr-23 03:25N 59°42' E 028°26'0 0.0
2017-Apr-23 02:58N 59°42' E 028°26'0 0.0
2017-Apr-23 02:28N 59°42' E 028°26'0 0.0
2017-Apr-23 01:58N 59°42' E 028°26'0 0.0
2017-Apr-23 01:28N 59°42' E 028°26'0 0.0
2017-Apr-23 00:58N 59°42' E 028°26'0 0.0
2017-Apr-23 00:30N 59°42' E 028°26'0 0.8
2017-Apr-23 00:00N 59°42' E 028°25'1 2.1
2017-Apr-22 23:30N 59°42' E 028°24'4 7.8
2017-Apr-22 23:00N 59°46' E 028°24'612.1
2017-Apr-22 22:30N 59°52' E 028°28'5 9.5
2017-Apr-22 22:00N 59°55' E 028°35'1 1.1
2017-Apr-22 21:23N 59°55' E 028°37'0 0.0
2017-Apr-22 20:56N 59°55' E 028°37'0 0.0
2017-Apr-22 20:26N 59°55' E 028°37'0 0.1
2017-Apr-22 19:56N 59°55' E 028°37'0 0.1
2017-Apr-22 19:26N 59°55' E 028°37'0 0.1
2017-Apr-22 18:56N 59°55' E 028°37'0 0.0
2017-Apr-22 18:26N 59°55' E 028°37'0 0.1
2017-Apr-22 17:59N 59°55' E 028°37'0 0.1
2017-Apr-22 17:29N 59°55' E 028°37'0 0.1
2017-Apr-22 16:56N 59°55' E 028°37'0 0.1
2017-Apr-22 16:26N 59°55' E 028°36'0 0.0
2017-Apr-22 15:59N 59°55' E 028°36'0 0.1
2017-Apr-22 15:29N 59°55' E 028°37'0 0.1
2017-Apr-22 14:59N 59°55' E 028°37'0 0.1
2017-Apr-22 14:29N 59°55' E 028°37'0 0.0
2017-Apr-22 13:29N 59°55' E 028°37'0 0.1
2017-Apr-22 12:59N 59°55' E 028°37'0 0.0
2017-Apr-22 12:29N 59°55' E 028°37'0 0.0
2017-Apr-22 11:59N 59°55' E 028°37'0 0.0
2017-Apr-22 11:29N 59°55' E 028°36'0 0.0
2017-Apr-22 10:59N 59°55' E 028°36'0 0.2
2017-Apr-22 10:20N 59°55' E 028°37'0 0.2
2017-Apr-22 09:50N 59°55' E 028°37'0 0.0
2017-Apr-22 09:20N 59°55' E 028°37'0 0.0
2017-Apr-22 08:50N 59°55' E 028°37'0 0.0
2017-Apr-22 08:23N 59°55' E 028°37'0 0.0
2017-Apr-22 07:53N 59°55' E 028°37'0 0.0
2017-Apr-22 07:23N 59°55' E 028°37'0 0.1
2017-Apr-22 06:53N 59°55' E 028°37'0 0.1
2017-Apr-22 06:23N 59°55' E 028°37'0 0.0
2017-Apr-22 05:53N 59°55' E 028°37'0 0.1
2017-Apr-22 05:26N 59°55' E 028°37'0 0.0
2017-Apr-22 04:56N 59°55' E 028°37'0 0.0
2017-Apr-22 04:26N 59°55' E 028°37'0 0.0
2017-Apr-22 03:56N 59°55' E 028°37'0 0.0
2017-Apr-22 03:29N 59°55' E 028°37'0 0.0
2017-Apr-22 02:59N 59°55' E 028°37'0 0.0
2017-Apr-22 02:29N 59°55' E 028°37'0 0.0
2017-Apr-22 01:59N 59°55' E 028°37'0 0.1
2017-Apr-22 01:29N 59°55' E 028°37'0 0.1
2017-Apr-22 00:59N 59°55' E 028°37'0 0.0
2017-Apr-22 00:29N 59°55' E 028°37'0 0.0
2017-Apr-21 23:59N 59°55' E 028°37'0 0.0
2017-Apr-21 23:29N 59°55' E 028°37'0 0.0
2017-Apr-21 22:59N 59°55' E 028°37'0 0.0
2017-Apr-21 22:29N 59°55' E 028°37'0 0.0
2017-Apr-21 21:59N 59°55' E 028°37'0 0.0
2017-Apr-21 21:14N 59°55' E 028°37'0 0.1
2017-Apr-21 20:59N 59°55' E 028°37'0 0.0
2017-Apr-21 20:29N 59°55' E 028°37'0 0.1
2017-Apr-21 19:59N 59°55' E 028°37'0 0.0
2017-Apr-21 19:29N 59°55' E 028°37'0 0.0
2017-Apr-21 18:50N 59°55' E 028°37'0 0.0
2017-Apr-21 18:20N 59°55' E 028°37'0 0.0
2017-Apr-21 17:50N 59°55' E 028°37'0 0.0
2017-Apr-21 17:23N 59°55' E 028°37'0 0.0
2017-Apr-21 16:53N 59°55' E 028°37'0 0.0
2017-Apr-21 16:23N 59°55' E 028°37'0 0.0
2017-Apr-21 15:56N 59°55' E 028°37'0 0.1
2017-Apr-21 15:26N 59°55' E 028°37'0 0.1
2017-Apr-21 14:53N 59°55' E 028°37'0 0.1
2017-Apr-21 14:23N 59°55' E 028°37'0 0.1
2017-Apr-21 13:26N 59°55' E 028°37'0 0.0
2017-Apr-21 12:56N 59°55' E 028°37'0 0.0
2017-Apr-21 12:26N 59°55' E 028°37'0 0.0
2017-Apr-21 11:59N 59°55' E 028°37'0 0.1
2017-Apr-21 11:29N 59°55' E 028°37'0 0.0
2017-Apr-21 10:59N 59°55' E 028°37'0 0.0
2017-Apr-21 10:29N 59°55' E 028°37'0 0.0
2017-Apr-21 09:59N 59°55' E 028°37'0 0.0
2017-Apr-21 09:29N 59°55' E 028°37'0 0.0
2017-Apr-21 08:59N 59°55' E 028°37'0 0.0
2017-Apr-21 08:29N 59°55' E 028°37'0 0.0
2017-Apr-21 07:44N 59°55' E 028°37'0 0.1
2017-Apr-21 07:29N 59°55' E 028°37'0 0.0
2017-Apr-21 06:59N 59°55' E 028°37'0 0.2
2017-Apr-21 06:29N 59°55' E 028°37'1 1.0
2017-Apr-21 06:00N 59°56' E 028°38'4 7.0
2017-Apr-21 05:30N 59°59' E 028°37'4 8.6
2017-Apr-21 05:00N 60°02' E 028°32'510.4
2017-Apr-21 04:30N 60°04' E 028°22'5 9.3
2017-Apr-21 04:00N 60°07' E 028°15'4 8.9
2017-Apr-21 03:30N 60°08' E 028°06'4 8.5
2017-Apr-21 03:00N 60°09' E 027°58'5 8.8
2017-Apr-21 02:26N 60°11' E 027°48'30 8.6
2017-Apr-20 22:59N 59°59' E 026°53'4 8.3
2017-Apr-20 22:30N 59°59' E 026°45'6 9.1
2017-Apr-20 21:49N 59°59' E 026°33'7112.6
2017-Apr-20 16:11N 59°42' E 024°16'312.7
2017-Apr-20 15:55N 59°41' E 024°10'512.7
2017-Apr-20 15:30N 59°39' E 023°60'612.7
2017-Apr-20 15:00N 59°37' E 023°48'1313.0
2017-Apr-20 14:00N 59°33' E 023°24'912.8
2017-Apr-20 13:19N 59°30' E 023°07'33811.5
2017-Apr-19 07:57N 55°37' E 015°29'511.1
2017-Apr-19 07:29N 55°35' E 015°21'612.3
2017-Apr-19 06:59N 55°32' E 015°11'611.8
2017-Apr-19 06:30N 55°30' E 015°02'611.2
2017-Apr-19 05:59N 55°27' E 014°53'611.3
2017-Apr-19 05:29N 55°25' E 014°44'511.1
2017-Apr-19 05:00N 55°22' E 014°36'611.2
2017-Apr-19 04:30N 55°17' E 014°30'611.5
2017-Apr-19 04:00N 55°13' E 014°24'611.6
2017-Apr-19 03:30N 55°08' E 014°18'611.4
2017-Apr-19 03:00N 55°04' E 014°11'611.0
2017-Apr-19 02:29N 55°00' E 014°04'611.3
2017-Apr-19 01:59N 54°59' E 013°54'611.4
2017-Apr-19 01:29N 54°57' E 013°45'611.7
2017-Apr-19 00:59N 54°55' E 013°35'3811.7
2017-Apr-18 21:46N 54°41' E 012°34'311.7
2017-Apr-18 21:30N 54°39' E 012°30'12 9.2
2017-Apr-18 20:09N 54°30' E 012°16'510.6
2017-Apr-18 19:40N 54°26' E 012°11'210.5
2017-Apr-18 19:30N 54°25' E 012°08'511.2
2017-Apr-18 19:00N 54°25' E 011°59'511.0
2017-Apr-18 18:30N 54°25' E 011°49'611.1
2017-Apr-18 18:00N 54°26' E 011°40'510.7
2017-Apr-18 17:30N 54°29' E 011°32'510.8
2017-Apr-18 17:00N 54°31' E 011°23'611.0
2017-Apr-18 16:30N 54°33' E 011°15'510.7
2017-Apr-18 16:00N 54°36' E 011°07'510.4
2017-Apr-18 15:30N 54°39' E 010°59'510.8
2017-Apr-18 15:00N 54°42' E 010°52'611.1
2017-Apr-18 14:30N 54°48' E 010°52'10 9.9
2017-Apr-18 13:30N 54°57' E 010°57'510.4
2017-Apr-18 13:00N 55°02' E 011°01'511.0
2017-Apr-18 12:30N 55°07' E 011°02'117 8.1
2017-Apr-17 21:59N 57°03' E 011°41'510.6
2017-Apr-17 21:29N 57°08' E 011°37'510.4
2017-Apr-17 21:00N 57°13' E 011°34'510.4
2017-Apr-17 20:30N 57°17' E 011°31'510.4
2017-Apr-17 19:59N 57°22' E 011°28'510.1
2017-Apr-17 19:30N 57°27' E 011°27'5 9.5
2017-Apr-17 19:00N 57°32' E 011°31'510.6
2017-Apr-17 18:30N 57°34' E 011°39'1 2.3
2017-Apr-17 18:00N 57°35' E 011°41'0 0.0
2017-Apr-17 17:30N 57°35' E 011°41'0 0.0
2017-Apr-17 17:00N 57°35' E 011°41'0 0.0
2017-Apr-17 16:30N 57°35' E 011°41'0 0.0
2017-Apr-17 16:00N 57°35' E 011°41'0 0.1
2017-Apr-17 15:30N 57°35' E 011°41'0 0.6
2017-Apr-17 15:00N 57°35' E 011°40'6 6.2
2017-Apr-17 14:00N 57°34' E 011°28'610.9
2017-Apr-17 13:30N 57°35' E 011°18'611.1
2017-Apr-17 13:00N 57°36' E 011°08'611.5
2017-Apr-17 12:30N 57°39' E 011°00'611.4
2017-Apr-17 12:00N 57°43' E 010°52'611.4
2017-Apr-17 11:28N 57°47' E 010°44'612.4
2017-Apr-17 11:00N 57°48' E 010°33'23211.2
2017-Apr-16 14:13N 55°06' E 005°31'911.6
2017-Apr-16 13:27N 54°58' E 005°24'511.6
2017-Apr-16 13:00N 54°54' E 005°20'611.6
2017-Apr-16 12:30N 54°48' E 005°16'17210.5
2017-Apr-15 20:10N 52°08' E 003°34'211.7
2017-Apr-15 20:00N 52°07' E 003°36'612.3
2017-Apr-15 19:30N 52°05' E 003°46'511.0
2017-Apr-15 19:00N 52°03' E 003°54'4 8.4
2017-Apr-15 18:30N 52°00' E 003°60'4 8.2
2017-Apr-15 18:01N 51°58' E 004°05'0 0.7
2017-Apr-15 17:30N 51°58' E 004°04'0 0.0
2017-Apr-15 17:00N 51°58' E 004°04'0 0.0
2017-Apr-15 16:30N 51°58' E 004°04'0 0.0
2017-Apr-15 15:54N 51°58' E 004°04'0 0.0
2017-Apr-15 15:30N 51°58' E 004°04'0 0.0
2017-Apr-15 15:00N 51°58' E 004°04'0 0.0
2017-Apr-15 14:30N 51°58' E 004°04'0 0.0
2017-Apr-15 13:30N 51°58' E 004°04'  

Dump ship's entire track history